Latest Weather Observations for Truscott

IDD60801

Issued at 7:41 am CST Friday 21 September 2018 (issued every 10 minutes, with the page automatically refreshed every 10 minutes)

About weather observations | Map of weather stations | Latest weather observations for NT | Other Formats
Station Details ID: 001020 Name: TRUSCOTT Lat: -14.09 Lon: 126.39 Height: 51.0 m
Data from the previous 72 hours. | See also: Recent months at Truscott
Date/Time
CST
Temp
°C
App
Temp
°C
Dew
Point
°C
Rel
Hum
%
Delta-T
°C
Wind Press
QNH
hPa
Press
MSL
hPa
Rain since
9am
mm
Dir  Spd
km/h
Gust
km/h
Spd
kts
Gust
kts
21/07:30am 23.4 26.9 21.8 91 1.1 SE 6 7 3 4 1014.3 1013.8 0.0
21/07:00am 23.4 26.4 22.0 92 0.9 SE 9 15 5 8 1014.2 1013.9 0.0
21/06:30am 23.2 26.5 21.8 92 0.9 SE 7 11 4 6 1013.3 1013.0 0.0
21/06:00am 22.9 26.4 22.1 95 0.5 SE 7 9 4 5 1012.9 1012.6 0.0
21/05:30am 22.5 25.9 21.7 95 0.5 SE 6 7 3 4 1012.5 1012.2 0.0
21/05:00am 23.1 26.6 22.1 94 0.7 SE 7 9 4 5 1012.1 1011.8 0.0
21/04:30am 22.1 25.9 21.6 97 0.3 SSE 4 7 2 4 1011.7 1011.2 0.0
21/04:00am 22.4 26.9 21.6 95 0.5 CALM 0 0 0 0 1011.6 1011.3 0.0
21/03:30am 22.6 27.2 21.8 95 0.5 CALM 0 0 0 0 1011.6 1011.3 0.0
21/03:00am 22.7 27.2 21.5 93 0.8 CALM 0 0 0 0 1011.8 1011.5 0.0
21/02:30am 22.7 27.0 21.2 91 1.0 CALM 0 0 0 0 1011.9 1011.6 0.0
21/02:00am 23.0 27.5 21.5 91 1.0 CALM 0 6 0 3 1012.1 1011.8 0.0
21/01:30am 23.1 27.6 21.5 91 1.1 CALM 0 0 0 0 1012.5 1012.0 0.0
21/01:00am 23.2 27.5 21.1 88 1.4 CALM 0 6 0 3 1012.7 1012.4 0.0
21/12:30am 23.7 27.9 21.0 85 1.8 CALM 0 0 0 0 1012.9 1012.6 0.0
21/12:00am 24.5 27.9 21.6 84 1.9 WSW 6 9 3 5 1012.9 1012.6 0.0
 
Date/Time
CST
Temp
°C
App
Temp
°C
Dew
Point
°C
Rel
Hum
%
Delta-T
°C
Wind Press
QNH
hPa
Press
MSL
hPa
Rain since
9am
mm
Dir  Spd
km/h
Gust
km/h
Spd
kts
Gust
kts
20/11:30pm 24.8 28.9 21.5 82 2.2 WSW 2 6 1 3 1013.1 1012.8 0.0
20/11:00pm 24.8 28.1 21.5 82 2.2 WNW 6 7 3 4 1013.3 1013.0 0.0
20/10:30pm 24.5 27.8 21.4 83 2.1 NW 6 7 3 4 1013.3 1012.8 0.0
20/10:00pm 24.7 27.9 21.2 81 2.3 WNW 6 7 3 4 1013.3 1013.0 0.0
20/09:30pm 25.4 28.5 21.1 77 2.8 NNW 6 7 3 4 1013.2 1012.9 0.0
20/09:00pm 25.9 28.8 21.1 75 3.2 NNW 7 11 4 6 1012.8 1012.5 0.0
20/08:30pm 26.2 29.2 21.2 74 3.3 NNW 7 11 4 6 1012.2 1011.9 0.0
20/08:00pm 26.5 29.2 21.3 73 3.5 NNW 9 15 5 8 1012.0 1011.7 0.0
20/07:30pm 26.6 29.7 21.4 73 3.5 NNW 7 11 4 6 1011.3 1010.8 0.0
20/07:00pm 27.0 29.3 21.3 71 3.8 NNW 11 17 6 9 1010.9 1010.6 0.0
20/06:30pm 27.7 29.1 21.0 67 4.4 NNW 15 20 8 11 1010.3 1010.0 0.0
20/06:00pm 28.2 29.7 20.5 63 5.1 NNW 13 24 7 13 1010.1 1009.8 0.0
20/05:30pm 28.6 29.5 20.9 63 5.1 NNW 17 24 9 13 1009.9 1009.6 0.0
20/05:00pm 29.4 31.0 21.4 62 5.4 NNW 15 24 8 13 1009.8 1009.5 0.0
20/04:30pm 29.4 30.6 21.4 62 5.4 NNW 17 22 9 12 1009.6 1009.1 0.0
20/04:00pm 29.4 30.4 21.1 61 5.5 NNW 17 24 9 13 1009.5 1009.1 0.0
20/03:30pm 30.3 32.1 21.9 60 5.7 NNW 15 20 8 11 1009.5 1009.1 0.0
20/03:00pm 30.5 32.3 21.9 60 5.8 NNW 15 20 8 11 1009.7 1009.4 0.0
20/02:30pm 30.0 31.8 21.9 62 5.5 NNW 15 24 8 13 1009.9 1009.6 0.0
20/02:00pm 30.1 31.6 21.2 59 6.0 NNW 15 24 8 13 1010.3 1010.0 0.0
20/01:30pm 28.8 29.8 21.0 62 5.2 N 17 26 9 14 1010.5 1010.0 0.0
20/01:00pm 29.6 31.1 21.3 61 5.6 N 15 22 8 12 1010.7 1010.4 0.0
20/12:30pm 29.4 30.7 20.8 60 5.7 N 15 24 8 13 1011.1 1010.8 0.0
20/12:00pm 30.1 31.8 20.9 57 6.1 NNW 13 20 7 11 1011.5 1011.2 0.0
20/11:30am 29.4 30.5 20.5 58 5.9 NNW 15 24 8 13 1011.9 1011.6 0.0
20/11:00am 29.3 31.6 21.3 62 5.4 NNW 11 20 6 11 1012.2 1011.9 0.0
20/10:30am 29.0 31.9 21.0 62 5.3 NNW 7 19 4 10 1012.4 1011.9 0.0
20/10:00am 28.0 31.0 20.8 65 4.8 WNW 6 13 3 7 1012.4 1012.1 0.0
20/09:30am 28.1 30.5 21.6 68 4.4 WNW 11 17 6 9 1012.0 1011.7 0.0
20/09:00am 27.5 29.1 21.5 70 4.0 WNW 15 20 8 11 1011.5 1011.2 0.0
20/08:30am 27.0 28.7 21.7 73 3.5 WNW 15 20 8 11 1011.2 1010.9 0.0
20/08:00am 26.4 29.4 22.0 77 3.0 WNW 9 15 5 8 1010.7 1010.4 0.0
20/07:30am 25.2 28.2 21.9 82 2.2 WNW 9 11 5 6 1010.2 1009.7 0.0
20/07:00am 25.0 28.5 22.1 84 1.9 WNW 7 11 4 6 1009.9 1009.6 0.0
20/06:30am 25.0 28.3 21.9 83 2.1 WNW 7 11 4 6 1009.7 1009.4 0.0
20/06:00am 25.0 28.0 21.9 83 2.1 WNW 9 15 5 8 1009.4 1009.0 0.0
20/05:30am 25.2 28.2 21.9 82 2.2 WNW 9 15 5 8 1009.2 1008.8 0.0
20/05:00am 25.4 28.0 21.9 81 2.3 WNW 11 17 6 9 1009.1 1008.7 0.0
20/04:30am 25.4 27.5 21.7 80 2.5 W 13 17 7 9 1009.2 1008.7 0.0
20/04:00am 25.1 28.3 21.6 81 2.3 WNW 7 11 4 6 1009.4 1009.0 0.0
20/03:30am 25.6 28.7 22.1 81 2.3 W 9 13 5 7 1009.6 1009.2 0.0
20/03:00am 25.7 27.5 21.8 79 2.6 W 15 19 8 10 1009.7 1009.4 0.0
20/02:30am 25.8 28.4 21.9 79 2.6 W 11 19 6 10 1010.0 1009.7 0.0
20/02:00am 25.7 28.4 22.2 81 2.3 W 11 15 6 8 1010.4 1010.1 0.0
20/01:30am 25.8 28.9 22.1 80 2.5 WNW 9 11 5 6 1010.8 1010.3 0.0
20/01:00am 25.9 28.8 21.8 78 2.7 WNW 9 15 5 8 1011.2 1010.9 0.0
20/12:30am 26.1 29.2 21.5 76 3.1 W 7 13 4 7 1011.5 1011.2 0.0
20/12:00am 25.6 28.4 20.8 75 3.2 W 7 11 4 6 1011.5 1011.2 0.0
 
Date/Time
CST
Temp
°C
App
Temp
°C
Dew
Point
°C
Rel
Hum
%
Delta-T
°C
Wind Press
QNH
hPa
Press
MSL
hPa
Rain since
9am
mm
Dir  Spd
km/h
Gust
km/h
Spd
kts
Gust
kts
19/11:30pm 26.0 28.9 20.6 72 3.5 W 6 9 3 5 1011.8 1011.5 0.0
19/11:00pm 26.0 28.5 20.3 71 3.7 NW 7 11 4 6 1011.9 1011.6 0.0
19/10:30pm 26.2 28.6 20.1 69 4.0 WNW 7 11 4 6 1011.9 1011.4 0.0
19/10:00pm 26.2 28.5 19.8 68 4.2 WNW 7 11 4 6 1011.7 1011.4 0.0
19/09:30pm 26.6 28.8 19.5 65 4.6 NW 7 11 4 6 1011.5 1011.2 0.0
19/09:00pm 26.7 28.5 18.8 62 5.1 NW 7 13 4 7 1010.9 1010.6 0.0
19/08:30pm 27.2 28.2 17.7 56 6.0 NW 9 15 5 8 1010.6 1010.3 0.0
19/08:00pm 27.7 27.6 16.9 51 6.8 WNW 13 20 7 11 1010.0 1009.7 0.0
19/07:30pm 28.1 27.8 16.4 49 7.3 WNW 13 20 7 11 1009.5 1009.0 0.0
19/07:00pm 28.1 28.0 17.0 51 7.0 NW 13 22 7 12 1009.3 1008.9 0.0
19/06:30pm 28.6 28.5 17.8 52 6.9 NW 15 24 8 13 1009.0 1008.6 0.0
19/06:00pm 29.5 28.4 16.3 45 8.2 NW 17 30 9 16 1008.6 1008.2 0.0
19/05:30pm 30.0 28.3 15.7 42 8.9 NNW 19 30 10 16 1008.4 1008.0 0.0
19/05:00pm 30.2 28.4 15.9 42 8.9 NNW 20 32 11 17 1008.3 1007.9 0.0
19/04:30pm 30.9 27.7 13.2 34 10.6 NW 22 35 12 19 1008.2 1007.7 0.0
19/04:00pm 31.6 27.4 9.8 26 12.4 NNW 22 33 12 18 1008.4 1008.0 0.0
19/03:30pm 32.5 28.9 10.5 26 12.7 NNW 20 30 11 16 1008.7 1008.3 0.0
19/03:00pm 32.5 28.2 8.0 22 13.6 NNW 20 30 11 16 1009.0 1008.6 0.0
19/02:30pm 32.2 28.0 9.7 25 12.8 NNW 22 33 12 18 1009.4 1009.0 0.0
19/02:00pm 32.8 30.6 14.4 33 11.3 NNW 19 28 10 15 1009.9 1009.6 0.0
19/01:30pm 32.0 30.5 16.3 39 9.9 NNW 19 30 10 16 1010.4 1009.9 0.0
19/01:00pm 33.2 31.2 13.8 31 11.8 WNW 17 28 9 15 1010.9 1010.6 0.0
19/12:30pm 33.0 30.8 12.1 28 12.4 WNW 15 24 8 13 1011.5 1011.2 0.0
19/12:00pm 32.5 29.8 11.6 28 12.3 WNW 17 24 9 13 1012.0 1011.7 0.0
19/11:30am 32.4 30.0 12.6 30 11.8 W 17 22 9 12 1012.6 1012.3 0.0
19/11:00am 32.8 32.5 14.4 33 11.3 WNW 9 19 5 10 1013.0 1012.7 0.0
19/10:30am 31.0 29.4 12.8 32 10.8 WSW 13 22 7 12 1013.3 1012.8 0.0
19/10:00am 30.4 29.3 13.2 35 10.3 SW 11 19 6 10 1013.5 1013.2 0.0
19/09:30am 29.3 28.5 15.1 42 8.7 SW 13 19 7 10 1013.5 1013.2 0.0
19/09:00am 27.9 28.9 17.7 53 6.5 SW 9 15 5 8 1013.4 1013.1 0.0
19/08:30am 26.7 29.8 18.6 61 5.2 CALM 0 6 0 3 1013.0 1012.7 0.0
19/08:00am 25.7 28.1 17.9 62 4.9 W 2 7 1 4 1012.5 1012.2 0.0
19/07:30am 24.4 26.2 18.3 69 3.9 SW 6 9 3 5 1012.1 1011.6 0.0
19/07:00am 23.6 25.1 18.0 71 3.5 SW 7 9 4 5 1011.5 1011.2 0.0
19/06:30am 24.2 25.8 18.2 69 3.8 SW 7 9 4 5 1011.1 1010.8 0.0
19/06:00am 24.5 25.4 18.4 69 3.9 SW 11 15 6 8 1010.7 1010.4 0.0
19/05:30am 24.2 25.9 19.3 74 3.1 SW 9 11 5 6 1010.4 1010.1 0.0
19/05:00am 24.3 26.3 20.0 77 2.8 SW 9 13 5 7 1010.2 1009.9 0.0
19/04:30am 24.7 27.1 20.8 79 2.6 SW 9 13 5 7 1010.1 1009.6 0.0
19/04:00am 24.8 27.8 21.3 81 2.3 SW 7 9 4 5 1010.4 1010.1 0.0
19/03:30am 25.5 28.0 21.8 80 2.5 SW 11 17 6 9 1010.5 1010.2 0.0
19/03:00am 25.3 27.7 21.6 80 2.5 WSW 11 13 6 7 1010.8 1010.5 0.0
19/02:30am 25.5 28.2 21.4 78 2.7 WSW 9 13 5 7 1011.3 1011.0 0.0
19/02:00am 25.6 28.9 21.9 80 2.5 SW 7 9 4 5 1011.7 1011.4 0.0
19/01:30am 25.7 28.8 22.2 81 2.4 SW 9 11 5 6 1012.1 1011.6 0.0
19/01:00am 25.8 29.1 21.9 79 2.6 WSW 7 9 4 5 1012.5 1012.2 0.0
19/12:30am 25.8 29.0 21.7 78 2.7 WSW 7 11 4 6 1012.7 1012.4 0.0
19/12:00am 26.1 28.9 21.5 76 3.1 WSW 9 11 5 6 1013.0 1012.7 0.0
 
Date/Time
CST
Temp
°C
App
Temp
°C
Dew
Point
°C
Rel
Hum
%
Delta-T
°C
Wind Press
QNH
hPa
Press
MSL
hPa
Rain since
9am
mm
Dir  Spd
km/h
Gust
km/h
Spd
kts
Gust
kts
18/11:30pm 26.1 28.9 21.5 76 3.1 WSW 9 13 5 7 1013.0 1012.7 0.0
18/11:00pm 26.4 29.2 21.6 75 3.2 WSW 9 13 5 7 1012.9 1012.6 0.0
18/10:30pm 26.5 28.8 21.3 73 3.5 WSW 11 13 6 7 1012.9 1012.4 0.0
18/10:00pm 26.6 28.9 20.7 70 3.9 WSW 9 11 5 6 1012.9 1012.6 0.0
18/09:30pm 26.8 28.7 19.7 65 4.6 WSW 9 11 5 6 1012.7 1012.4 0.0
18/09:00pm 27.4 28.9 18.1 57 5.9 WSW 7 11 4 6 1012.5 1012.2 0.0
18/08:30pm 27.4 29.2 17.3 54 6.3 W 4 7 2 4 1012.2 1011.9 0.0
18/08:00pm 27.8 29.1 17.6 53 6.4 WNW 7 9 4 5 1011.8 1011.5 0.0
18/07:30pm 28.4 28.8 15.3 45 8.0 NW 7 11 4 6 1011.5 1011.0 0.0
18/07:00pm 29.1 28.7 14.1 40 9.0 NW 9 13 5 7 1011.1 1010.8 0.0
18/06:30pm 30.1 29.1 13.4 36 10.0 NW 11 15 6 8 1010.8 1010.5 0.0
18/06:00pm 30.6 29.2 13.4 35 10.3 NNW 13 20 7 11 1010.5 1010.2 0.0
18/05:30pm 30.9 28.7 13.2 34 10.6 NW 17 22 9 12 1010.4 1010.1 0.0
18/05:00pm 31.6 30.3 13.8 34 10.8 NW 13 22 7 12 1010.1 1009.8 0.0
18/04:30pm 31.8 30.2 14.0 34 10.8 NNW 15 22 8 12 1010.2 1009.7 0.0
18/04:00pm 32.3 30.1 12.0 29 12.0 NNW 15 20 8 11 1010.4 1010.1 0.0
18/03:30pm 32.8 31.2 12.9 29 11.9 NW 13 22 7 12 1010.5 1010.2 0.0
18/03:00pm 32.6 31.0 13.8 32 11.4 N 15 20 8 11 1010.9 1010.6 0.0
18/02:30pm 33.0 31.5 13.1 30 12.0 NW 13 20 7 11 1011.4 1011.1 0.0
18/02:00pm 32.5 30.7 12.2 29 12.0 NW 13 20 7 11 1012.0 1011.7 0.0
18/01:30pm 32.6 31.5 14.2 32 11.2 NNW 13 24 7 13 1012.5 1012.0 0.0
18/01:00pm 32.6 31.2 13.3 31 11.6 NNW 13 19 7 10 1012.9 1012.6 0.0
18/12:30pm 31.2 30.9 16.4 41 9.3 NNW 13 20 7 11 1013.4 1013.1 0.0
18/12:00pm 30.8 32.0 19.8 52 7.2 N 13 20 7 11 1014.1 1013.8 0.0
18/11:30am 30.8 32.0 19.8 52 7.2 N 13 22 7 12 1014.5 1014.2 0.0
18/11:00am 30.2 32.5 21.3 59 6.0 NNW 11 17 6 9 1015.0 1014.7 0.0
18/10:30am 30.0 32.4 20.0 55 6.6 W 7 13 4 7 1015.1 1014.7 0.0
18/10:00am 28.8 30.4 19.1 55 6.3 W 9 15 5 8 1015.2 1014.9 0.0
18/09:30am 27.8 31.1 22.5 73 3.6 W 9 11 5 6 1015.0 1014.7 0.0

Other Formats:

Comma delimited format used in spreadsheet applications
http://www.bom.gov.au/fwo/IDD60801/IDD60801.95101.axf

JavaScript Object Notation format (JSON) in row-major order
http://www.bom.gov.au/fwo/IDD60801/IDD60801.95101.json